Time;durP1;ratioP1;P1;durP2;ratioP2;P2;SDS_P1;SDS_P2;PMS_P1;PMS_P2;Temp;Humidity;BMP_temperature;BMP_pressure;BME280_temperature;BME280_humidity;BME280_pressure;Samples;Min_cycle;Max_cycle;Signal;HPM_P1;HPM_P2
2022/01/27 00:00:43;;;;;;;22.13;9.80;;;;;;;1.23;100.00;101116.44;5066962;28;20118;-77
2022/01/27 00:03:26;;;;;;;26.92;13.48;;;;;;;1.19;100.00;101114.72;5077866;28;20052;-77
2022/01/27 00:05:59;;;;;;;28.50;13.18;;;;;;;1.14;100.00;101107.75;5076765;28;20108;-75
2022/01/27 00:08:30;;;;;;;23.20;9.93;;;;;;;1.10;100.00;101116.53;5076625;28;20043;-76
2022/01/27 00:11:02;;;;;;;30.52;15.10;;;;;;;1.09;100.00;101117.44;5076137;28;20055;-76
2022/01/27 00:13:33;;;;;;;25.83;11.68;;;;;;;1.09;100.00;101111.31;5076796;28;20052;-76
2022/01/27 00:16:13;;;;;;;24.85;12.10;;;;;;;1.20;100.00;101134.88;5075552;28;20444;-76
2022/01/27 00:18:45;;;;;;;26.20;12.95;;;;;;;1.19;100.00;101133.13;5076834;28;20044;-77
2022/01/27 00:21:15;;;;;;;33.45;14.02;;;;;;;1.17;100.00;101129.66;5076124;28;20124;-83
2022/01/27 00:23:45;;;;;;;30.02;13.25;;;;;;;1.14;100.00;101128.75;5076195;28;20044;-79
2022/01/27 00:26:14;;;;;;;30.15;14.57;;;;;;;1.12;100.00;101132.28;5076165;28;20540;-78
2022/01/27 00:28:43;;;;;;;14.23;7.05;;;;;;;1.10;100.00;101113.91;5077757;28;20494;-79
2022/01/27 00:31:11;;;;;;;31.33;15.10;;;;;;;1.04;100.00;101110.44;5076098;28;20074;-79
2022/01/27 00:33:45;;;;;;;29.73;13.45;;;;;;;1.08;100.00;101112.19;5076462;28;20132;-80
2022/01/27 00:36:14;;;;;;;32.00;14.68;;;;;;;1.09;100.00;101122.69;5075682;28;20044;-81
2022/01/27 00:38:42;;;;;;;31.90;14.80;;;;;;;1.12;100.00;101116.53;5076179;28;20397;-80
2022/01/27 00:41:13;;;;;;;29.02;13.07;;;;;;;1.06;100.00;101112.22;5075855;28;20072;-81
2022/01/27 00:43:43;;;;;;;29.10;14.90;;;;;;;1.08;100.00;101114.81;5074454;28;20060;-80
2022/01/27 00:46:16;;;;;;;31.08;14.80;;;;;;;1.11;100.00;101117.41;5075367;28;20043;-79
2022/01/27 00:48:46;;;;;;;33.30;14.45;;;;;;;1.06;100.00;101119.19;5075804;28;20203;-79
2022/01/27 00:51:21;;;;;;;36.20;14.70;;;;;;;1.11;100.00;101125.28;5075528;28;20116;-79
2022/01/27 00:53:54;;;;;;;28.02;13.88;;;;;;;1.03;100.00;101122.72;5075988;28;20444;-79
2022/01/27 00:56:29;;;;;;;29.05;14.18;;;;;;;1.17;100.00;101125.25;5076081;28;20071;-79
2022/01/27 00:59:17;;;;;;;33.92;13.60;;;;;;;1.25;100.00;101118.16;5075617;28;20052;-79
2022/01/27 01:01:51;;;;;;;29.00;11.25;;;;;;;1.15;100.00;101109.47;5074854;28;20040;-79
2022/01/27 01:04:27;;;;;;;28.38;14.23;;;;;;;1.04;100.00;101098.19;5075480;28;20044;-85
2022/01/27 01:06:56;;;;;;;31.90;11.63;;;;;;;1.00;100.00;101100.88;5075253;28;20119;-84
2022/01/27 01:14:59;;;;;;;17.02;8.05;;;;;;;0.99;100.00;101099.13;5075372;28;20123;-82
2022/01/27 01:17:35;;;;;;;27.08;13.05;;;;;;;1.00;100.00;101101.75;5075348;28;20124;-83
2022/01/27 01:31:27;;;;;;;30.42;13.85;;;;;;;1.00;100.00;101100.88;5074961;28;20044;-78
2022/01/27 01:34:11;;;;;;;32.65;14.32;;;;;;;1.03;100.00;101100.84;5075174;28;20103;-79
2022/01/27 01:36:54;;;;;;;32.03;12.73;;;;;;;1.07;100.00;101095.56;5074923;28;20533;-79
2022/01/27 01:39:23;;;;;;;31.90;14.27;;;;;;;1.07;100.00;101100.81;5074851;28;20045;-78
2022/01/27 01:41:53;;;;;;;29.58;13.98;;;;;;;1.11;100.00;101089.38;5075066;28;20049;-81
2022/01/27 01:44:21;;;;;;;33.63;16.10;;;;;;;1.13;100.00;101094.63;5074885;28;20068;-74
2022/01/27 01:46:50;;;;;;;29.48;14.60;;;;;;;1.09;100.00;101085.91;5074661;28;20105;-74
2022/01/27 01:49:19;;;;;;;32.00;14.55;;;;;;;1.07;100.00;101087.69;5074513;28;20094;-75
2022/01/27 01:51:50;;;;;;;29.48;13.70;;;;;;;1.03;100.00;101093.81;5074439;28;20581;-74
2022/01/27 01:54:18;;;;;;;30.02;14.50;;;;;;;1.01;100.00;101092.97;5074497;28;20124;-75
2022/01/27 01:56:46;;;;;;;30.40;14.90;;;;;;;1.11;100.00;101099.88;5074339;28;20094;-74
2022/01/27 01:59:15;;;;;;;31.98;14.40;;;;;;;1.09;100.00;101096.41;5074046;28;20048;-74
2022/01/27 02:01:43;;;;;;;30.38;12.85;;;;;;;1.08;100.00;101099.94;5074458;28;20063;-74
2022/01/27 02:04:12;;;;;;;31.85;13.50;;;;;;;1.07;100.00;101097.31;5074139;28;20474;-75
2022/01/27 02:06:48;;;;;;;28.65;14.25;;;;;;;1.11;100.00;101101.66;5074617;28;20489;-75
2022/01/27 02:09:26;;;;;;;31.17;14.85;;;;;;;1.09;100.00;101106.06;5074156;28;20049;-75
2022/01/27 02:20:14;;;;;;;27.05;11.13;;;;;;;1.09;100.00;101090.28;5073933;28;20045;-75
2022/01/27 02:22:43;;;;;;;31.88;15.27;;;;;;;1.09;100.00;101074.53;5074187;28;20086;-74
2022/01/27 02:25:11;;;;;;;26.08;13.27;;;;;;;1.08;100.00;101076.28;5073493;28;20070;-75
2022/01/27 02:27:40;;;;;;;28.70;13.98;;;;;;;1.09;100.00;101070.13;5073806;28;20482;-75
2022/01/27 02:30:08;;;;;;;32.38;14.25;;;;;;;1.09;100.00;101070.13;5073428;28;20044;-75
2022/01/27 02:32:37;;;;;;;27.20;14.27;;;;;;;1.03;100.00;101071.94;5073627;28;20083;-79
2022/01/27 02:35:07;;;;;;;27.92;14.15;;;;;;;1.03;100.00;101075.44;5073603;28;20131;-79
2022/01/27 02:37:36;;;;;;;29.20;14.30;;;;;;;1.09;100.00;101053.50;5073928;28;20044;-79
2022/01/27 02:40:06;;;;;;;27.92;13.60;;;;;;;1.02;100.00;101044.78;5073287;28;20390;-79
2022/01/27 02:42:37;;;;;;;29.75;14.15;;;;;;;1.00;100.00;101038.69;5073887;28;20040;-78
2022/01/27 02:45:09;;;;;;;30.38;13.70;;;;;;;1.00;100.00;101037.81;5073534;28;20044;-78
2022/01/27 02:47:38;;;;;;;27.17;12.70;;;;;;;1.06;100.00;101043.91;5073544;28;20425;-78
2022/01/27 02:50:08;;;;;;;24.77;12.43;;;;;;;1.19;100.00;101038.53;5073065;28;20045;-79
2022/01/27 02:52:38;;;;;;;26.20;12.63;;;;;;;1.19;100.00;101044.66;5073385;28;20047;-80
2022/01/27 02:55:07;;;;;;;27.48;12.95;;;;;;;1.20;100.00;101045.53;5073242;28;20051;-80
2022/01/27 02:57:36;;;;;;;28.48;12.10;;;;;;;1.26;100.00;101042.84;5073562;28;20118;-80
2022/01/27 03:00:06;;;;;;;26.75;13.23;;;;;;;1.20;100.00;101029.75;5072968;28;20037;-79
2022/01/27 03:02:36;;;;;;;30.67;12.93;;;;;;;1.27;100.00;101034.94;5073334;28;20072;-79
2022/01/27 03:05:05;;;;;;;28.98;13.27;;;;;;;1.26;100.00;101042.84;5072835;28;20505;-79
2022/01/27 03:07:33;;;;;;;27.30;12.95;;;;;;;1.31;100.00;101048.91;5073415;28;20123;-79
2022/01/27 03:10:04;;;;;;;25.25;11.73;;;;;;;1.30;100.00;101048.03;5073053;28;20044;-79
2022/01/27 03:12:36;;;;;;;27.80;13.25;;;;;;;1.33;100.00;101048.00;5073379;28;20045;-79
2022/01/27 03:15:08;;;;;;;19.25;8.90;;;;;;;1.27;100.00;101042.81;5073088;28;20135;-78
2022/01/27 03:17:36;;;;;;;26.45;13.75;;;;;;;1.29;100.00;101046.31;5073563;28;20393;-77
2022/01/27 03:20:08;;;;;;;29.33;13.98;;;;;;;1.26;100.00;101051.59;5073016;28;20048;-79
2022/01/27 03:22:37;;;;;;;26.60;13.48;;;;;;;1.23;100.00;101050.72;5073425;28;20430;-79
2022/01/27 03:25:08;;;;;;;29.35;13.95;;;;;;;1.28;100.00;101062.09;5072491;28;20072;-79
2022/01/27 03:27:43;;;;;;;29.48;14.30;;;;;;;1.29;100.00;101066.47;5073086;28;20045;-78
2022/01/27 03:30:12;;;;;;;30.90;12.45;;;;;;;1.27;100.00;101052.47;5072943;28;20121;-78
2022/01/27 03:32:41;;;;;;;23.75;11.77;;;;;;;1.18;100.00;101057.81;5073027;28;20139;-78
2022/01/27 03:35:11;;;;;;;26.90;13.65;;;;;;;1.20;100.00;101056.91;5072785;28;20052;-77
2022/01/27 03:37:39;;;;;;;26.80;13.77;;;;;;;1.31;100.00;101048.91;5072823;28;20052;-76
2022/01/27 03:40:10;;;;;;;25.98;13.23;;;;;;;1.29;100.00;101059.44;5072436;28;20093;-77
2022/01/27 03:42:45;;;;;;;31.55;14.25;;;;;;;1.25;100.00;101038.44;5073125;28;20048;-76
2022/01/27 03:45:15;;;;;;;28.10;14.63;;;;;;;1.23;100.00;101029.72;5072692;28;20119;-76
2022/01/27 03:47:44;;;;;;;28.42;14.18;;;;;;;1.22;100.00;101043.75;5072979;28;20036;-76
2022/01/27 03:50:12;;;;;;;28.17;14.05;;;;;;;1.25;100.00;101028.81;5072407;28;20060;-77
2022/01/27 03:52:40;;;;;;;31.70;14.52;;;;;;;1.24;100.00;101032.31;5072937;28;20120;-76
2022/01/27 03:55:11;;;;;;;31.52;14.20;;;;;;;1.23;100.00;101024.44;5072573;28;20127;-77
2022/01/27 03:57:39;;;;;;;20.85;9.80;;;;;;;1.33;100.00;101028.72;5073016;28;20440;-77
2022/01/27 04:00:10;;;;;;;33.25;14.25;;;;;;;1.33;100.00;101031.34;5072520;28;20040;-78
2022/01/27 04:02:49;;;;;;;28.13;12.75;;;;;;;1.26;100.00;101029.69;5072743;28;20040;-77
2022/01/27 04:05:19;;;;;;;28.98;13.80;;;;;;;1.29;100.00;101021.78;5072565;28;20080;-76
2022/01/27 04:07:47;;;;;;;30.88;14.02;;;;;;;1.23;100.00;101040.22;5072857;28;20106;-77
2022/01/27 04:10:17;;;;;;;26.08;11.77;;;;;;;1.24;100.00;101040.19;5072205;28;20120;-78
2022/01/27 04:12:45;;;;;;;27.73;15.23;;;;;;;1.22;100.00;101036.72;5072403;28;20048;-79
2022/01/27 04:15:14;;;;;;;32.13;13.90;;;;;;;1.30;100.00;101034.91;5072149;28;20040;-78
2022/01/27 04:17:42;;;;;;;29.17;14.05;;;;;;;1.36;100.00;101026.97;5072456;28;20048;-78
2022/01/27 04:20:13;;;;;;;29.05;14.15;;;;;;;1.33;100.00;101028.72;5072082;28;20498;-78
2022/01/27 04:22:41;;;;;;;28.10;14.00;;;;;;;1.31;100.00;101031.38;5072390;28;20041;-77
2022/01/27 04:25:11;;;;;;;26.48;12.95;;;;;;;1.42;100.00;101036.53;5071956;28;20047;-79
2022/01/27 04:27:47;;;;;;;27.42;13.77;;;;;;;1.36;100.00;101036.59;5072510;28;20508;-78
2022/01/27 04:30:18;;;;;;;29.02;13.90;;;;;;;1.34;100.00;101041.84;5072063;28;20072;-79
2022/01/27 04:32:52;;;;;;;27.35;13.25;;;;;;;1.38;100.00;101040.94;5072465;28;20049;-79
2022/01/27 04:35:22;;;;;;;;;;;;;;;1.44;100.00;101032.97;5072649;28;20064;-79
2022/01/27 04:38:13;;;;;;;27.17;13.45;;;;;;;1.38;100.00;101045.34;5076187;28;19920;-80
2022/01/27 04:40:49;;;;;;;29.48;13.43;;;;;;;1.42;100.00;101039.16;5076231;28;20040;-78
2022/01/27 04:43:26;;;;;;;28.17;13.95;;;;;;;1.34;100.00;101040.97;5075553;28;20102;-78
2022/01/27 04:46:03;;;;;;;28.05;12.60;;;;;;;1.25;100.00;101038.44;5076119;28;20033;-79
2022/01/27 04:48:36;;;;;;;29.25;13.18;;;;;;;1.31;100.00;101033.13;5076066;28;20094;-79
2022/01/27 04:51:07;;;;;;;27.80;13.43;;;;;;;1.31;100.00;101046.28;5075785;28;20119;-80
2022/01/27 04:53:41;;;;;;;29.20;14.60;;;;;;;1.29;100.00;101037.53;5075645;28;20055;-81
2022/01/27 04:56:19;;;;;;;25.35;11.95;;;;;;;1.33;100.00;101037.50;5075364;28;20047;-80
2022/01/27 04:58:53;;;;;;;30.30;14.18;;;;;;;1.33;100.00;101034.00;5075882;28;20520;-81
2022/01/27 05:01:28;;;;;;;28.85;14.27;;;;;;;1.20;100.00;101024.50;5075106;28;20037;-77
2022/01/27 05:04:01;;;;;;;28.58;13.95;;;;;;;1.25;100.00;101030.56;5075768;28;20052;-80
2022/01/27 05:06:30;;;;;;;27.00;13.13;;;;;;;1.39;100.00;101023.44;5075203;28;20047;-80
2022/01/27 05:08:58;;;;;;;27.63;14.75;;;;;;;1.35;100.00;101042.72;5075309;28;20540;-77
2022/01/27 05:11:30;;;;;;;26.63;13.65;;;;;;;1.34;100.00;101038.34;5075268;28;20045;-79
2022/01/27 05:14:06;;;;;;;27.55;13.98;;;;;;;1.46;100.00;101032.13;5075371;28;20044;-82
2022/01/27 05:16:34;;;;;;;25.83;13.15;;;;;;;1.43;100.00;101036.50;5075334;28;20098;-82
2022/01/27 05:19:04;;;;;;;21.88;11.38;;;;;;;1.46;100.00;101027.75;5075413;28;20048;-82
2022/01/27 05:21:33;;;;;;;23.45;11.18;;;;;;;1.38;100.00;101030.44;5074863;28;20048;-84
2022/01/27 05:24:02;;;;;;;25.33;13.07;;;;;;;1.45;100.00;101028.63;5075955;28;20127;-87
2022/01/27 05:26:30;;;;;;;25.90;12.55;;;;;;;1.53;100.00;101033.78;5075367;28;20047;-81
2022/01/27 05:29:00;;;;;;;25.88;13.50;;;;;;;1.61;100.00;101022.28;5075017;28;20040;-80
2022/01/27 05:31:28;;;;;;;25.40;13.05;;;;;;;1.53;100.00;101032.03;5074872;28;20440;-79
2022/01/27 05:33:58;;;;;;;26.48;14.50;;;;;;;1.43;100.00;101019.88;5075310;28;20057;-79
2022/01/27 05:36:27;;;;;;;26.58;13.43;;;;;;;1.58;100.00;101017.06;5074800;28;20410;-78
2022/01/27 05:38:55;;;;;;;24.27;12.45;;;;;;;1.50;100.00;101008.41;5075030;28;20098;-78
2022/01/27 05:41:23;;;;;;;29.27;14.05;;;;;;;1.45;100.00;101004.97;5074337;28;20105;-78
2022/01/27 05:43:52;;;;;;;26.77;13.85;;;;;;;1.42;100.00;101015.50;5075133;28;20044;-78
2022/01/27 05:46:22;;;;;;;28.30;13.57;;;;;;;1.45;100.00;100999.72;5074245;28;20044;-78
2022/01/27 05:48:50;;;;;;;27.27;14.18;;;;;;;1.47;100.00;100997.94;5074810;28;20504;-78
2022/01/27 05:51:19;;;;;;;27.05;14.57;;;;;;;1.39;100.00;100997.13;5074575;28;20041;-79
2022/01/27 05:53:47;;;;;;;29.17;13.70;;;;;;;1.48;100.00;100998.78;5074827;28;20036;-77
2022/01/27 05:56:15;;;;;;;26.52;13.68;;;;;;;1.48;100.00;100999.66;5074039;28;20040;-80
2022/01/27 05:58:44;;;;;;;21.73;10.80;;;;;;;1.48;100.00;101010.19;5074362;28;20413;-77
2022/01/27 06:01:13;;;;;;;23.73;11.50;;;;;;;1.43;100.00;100996.19;5074187;28;20064;-78
2022/01/27 06:03:43;;;;;;;27.67;13.95;;;;;;;1.40;100.00;100991.00;5074765;28;20040;-78
2022/01/27 06:06:11;;;;;;;29.88;14.02;;;;;;;1.48;100.00;100994.41;5074198;28;20047;-78
2022/01/27 06:08:40;;;;;;;27.83;14.40;;;;;;;1.49;100.00;100990.88;5074238;28;20045;-78
2022/01/27 06:11:08;;;;;;;29.55;15.05;;;;;;;1.42;100.00;100982.19;5074134;28;20124;-78
2022/01/27 06:13:38;;;;;;;26.60;13.90;;;;;;;1.52;100.00;100985.59;5073971;28;20523;-78
2022/01/27 06:16:10;;;;;;;23.25;10.98;;;;;;;1.44;100.00;100987.41;5073908;28;20398;-78
2022/01/27 06:18:38;;;;;;;30.70;14.03;;;;;;;1.41;100.00;100977.81;5074204;28;20043;-77
2022/01/27 06:21:12;;;;;;;28.45;14.05;;;;;;;1.40;100.00;100985.72;5073875;28;20063;-78
2022/01/27 06:23:41;;;;;;;26.38;13.40;;;;;;;1.53;100.00;100991.72;5074274;28;20040;-79
2022/01/27 06:26:09;;;;;;;28.88;14.30;;;;;;;1.54;100.00;100986.44;5073879;28;20040;-84
2022/01/27 06:28:37;;;;;;;28.92;15.60;;;;;;;1.44;100.00;100996.19;5073485;28;20110;-82
2022/01/27 06:31:05;;;;;;;27.77;13.73;;;;;;;1.44;100.00;100996.19;5074065;28;20075;-85
2022/01/27 06:33:34;;;;;;;27.73;14.75;;;;;;;1.51;100.00;100998.75;5073734;28;20060;-85
2022/01/27 06:36:03;;;;;;;27.30;13.70;;;;;;;1.61;100.00;101000.38;5073697;28;20378;-80
2022/01/27 06:38:33;;;;;;;28.58;14.18;;;;;;;1.59;100.00;101016.19;5073451;28;20066;-79
2022/01/27 06:41:01;;;;;;;29.65;15.35;;;;;;;1.57;100.00;101017.09;5073591;28;20044;-80
2022/01/27 06:43:29;;;;;;;29.55;14.35;;;;;;;1.53;100.00;101018.88;5073415;28;20049;-79
2022/01/27 06:45:57;;;;;;;27.70;14.38;;;;;;;1.58;100.00;101013.59;5073640;28;20124;-78
2022/01/27 06:48:26;;;;;;;28.73;15.38;;;;;;;1.74;100.00;101033.56;5073222;28;20043;-79
2022/01/27 06:50:56;;;;;;;31.00;14.10;;;;;;;1.67;100.00;101032.75;5073638;28;20540;-79
2022/01/27 06:53:24;;;;;;;25.35;13.18;;;;;;;1.68;100.00;101029.22;5073048;28;20067;-78
2022/01/27 06:55:54;;;;;;;28.00;14.25;;;;;;;1.65;100.00;101031.91;5073815;28;20048;-78
2022/01/27 06:58:23;;;;;;;28.75;14.10;;;;;;;1.67;100.00;101040.66;5072414;28;20039;-77
2022/01/27 07:00:51;;;;;;;30.50;14.88;;;;;;;1.69;100.00;101033.59;5073485;28;20052;-77
2022/01/27 07:03:20;;;;;;;28.48;14.38;;;;;;;1.72;100.00;101028.28;5072783;28;20041;-77
2022/01/27 07:05:49;;;;;;;28.95;14.13;;;;;;;1.70;100.00;101031.84;5072884;28;20075;-79
2022/01/27 07:08:17;;;;;;;29.15;14.98;;;;;;;1.70;100.00;101029.22;5073205;28;20377;-77
2022/01/27 07:10:46;;;;;;;28.60;13.85;;;;;;;1.81;100.00;101024.69;5068139;28;20064;-77
2022/01/27 07:13:16;;;;;;;28.10;14.48;;;;;;;1.67;100.00;101027.50;5071662;28;20040;-75
2022/01/27 07:15:44;;;;;;;32.08;15.38;;;;;;;1.67;100.00;101019.59;5072627;28;20394;-74
2022/01/27 07:18:13;;;;;;;29.73;15.10;;;;;;;1.60;100.00;101031.06;5072705;28;20041;-74
2022/01/27 07:20:41;;;;;;;26.10;13.30;;;;;;;1.64;100.00;101029.28;5075507;28;20430;-73
2022/01/27 07:23:10;;;;;;;25.40;13.43;;;;;;;1.78;100.00;101034.38;5072901;28;20047;-74
2022/01/27 07:25:39;;;;;;;31.58;13.55;;;;;;;1.64;100.00;101024.00;5054601;28;20401;-80
2022/01/27 07:28:07;;;;;;;31.02;15.00;;;;;;;1.65;100.00;101013.50;5053361;28;20555;-79
2022/01/27 07:30:39;;;;;;;30.05;14.88;;;;;;;1.64;100.00;101014.38;5052331;28;20045;-78
2022/01/27 07:33:07;;;;;;;30.92;15.50;;;;;;;1.66;100.00;101009.97;5052890;28;20053;-76
2022/01/27 07:35:36;;;;;;;29.42;15.98;;;;;;;1.64;100.00;100997.72;5052476;28;20045;-76
2022/01/27 07:38:05;;;;;;;29.52;14.15;;;;;;;1.65;100.00;100996.84;5052646;28;20102;-79
2022/01/27 07:40:34;;;;;;;28.80;13.85;;;;;;;1.59;100.00;100992.53;5061168;28;20036;-77
2022/01/27 07:43:14;;;;;;;29.25;13.65;;;;;;;1.62;100.00;100999.50;5072317;28;20089;-76
2022/01/27 07:45:44;;;;;;;29.88;14.52;;;;;;;1.57;100.00;100999.56;5071818;28;20041;-78
2022/01/27 07:48:13;;;;;;;29.77;14.90;;;;;;;1.70;100.00;101001.16;5072247;28;20132;-84
2022/01/27 07:50:41;;;;;;;29.65;14.13;;;;;;;1.73;100.00;100998.47;5071925;28;20045;-76
2022/01/27 07:53:10;;;;;;;28.65;14.23;;;;;;;1.83;100.00;101001.84;5072086;28;20040;-76
2022/01/27 07:55:38;;;;;;;25.35;13.05;;;;;;;1.70;100.00;101009.03;5072146;28;20097;-75
2022/01/27 07:58:07;;;;;;;28.92;14.07;;;;;;;1.68;100.00;100997.66;5072678;28;20059;-78
2022/01/27 08:00:36;;;;;;;31.20;15.68;;;;;;;1.71;100.00;101002.03;5071696;28;20055;-75
2022/01/27 08:03:07;;;;;;;26.33;14.30;;;;;;;1.73;100.00;101006.38;5071908;28;20048;-75
2022/01/27 08:05:35;;;;;;;29.40;14.68;;;;;;;1.81;100.00;101010.66;5071668;28;20103;-75
2022/01/27 08:08:04;;;;;;;26.48;11.52;;;;;;;1.75;100.00;101000.25;5072173;28;20036;-74
2022/01/27 08:10:37;;;;;;;29.48;14.25;;;;;;;1.71;100.00;101002.88;5073464;28;20068;-75
2022/01/27 08:13:05;;;;;;;31.90;15.23;;;;;;;1.76;100.00;100997.59;5076219;28;20052;-75
2022/01/27 08:15:34;;;;;;;29.20;15.02;;;;;;;1.95;100.00;100995.59;5075793;28;20064;-75
2022/01/27 08:18:03;;;;;;;23.27;12.18;;;;;;;1.90;100.00;100984.25;5076235;28;20036;-75
2022/01/27 08:20:33;;;;;;;25.23;11.88;;;;;;;1.87;100.00;100987.78;5075328;28;20059;-75
2022/01/27 08:23:02;;;;;;;23.13;11.05;;;;;;;1.83;100.00;100990.47;5076077;28;20484;-77
2022/01/27 08:25:30;;;;;;;29.55;15.73;;;;;;;1.90;100.00;100986.88;5075550;28;20045;-77
2022/01/27 08:28:01;;;;;;;35.08;15.48;;;;;;;2.01;100.00;100990.22;5075601;28;20044;-75
2022/01/27 08:30:38;;;;;;;;;;;;;;;2.01;100.00;100980.56;5075837;28;20089;-76
2022/01/27 08:33:13;;;;;;;26.75;13.25;;;;;;;2.02;100.00;100994.59;5074214;28;20433;-76
2022/01/27 08:35:44;;;;;;;24.58;11.80;;;;;;;1.96;100.00;100992.06;5075715;28;20048;-77
2022/01/27 08:38:13;;;;;;;24.38;11.02;;;;;;;1.93;100.00;100984.19;5075716;28;20041;-76
2022/01/27 08:40:42;;;;;;;21.92;9.43;;;;;;;1.78;100.00;100982.66;5073579;28;20048;-79
2022/01/27 08:43:10;;;;;;;34.65;15.35;;;;;;;1.93;100.00;100993.00;5075511;28;20045;-78
2022/01/27 08:45:39;;;;;;;31.23;15.20;;;;;;;2.07;100.00;100995.44;5075278;28;20093;-79
2022/01/27 08:48:10;;;;;;;28.02;13.57;;;;;;;2.15;100.00;100988.28;5075188;28;20037;-79
2022/01/27 08:50:38;;;;;;;17.02;8.00;;;;;;;2.08;100.00;100976.09;5075045;28;20072;-76
2022/01/27 08:53:08;;;;;;;26.08;12.30;;;;;;;2.09;100.00;100982.25;5075355;28;20123;-79
2022/01/27 08:55:37;;;;;;;34.88;16.40;;;;;;;2.28;100.00;100973.19;5074943;28;20486;-71
2022/01/27 08:58:05;;;;;;;28.13;13.63;;;;;;;2.28;100.00;100963.53;5075527;28;20071;-81
2022/01/27 09:00:33;;;;;;;20.63;9.32;;;;;;;2.43;100.00;100957.16;5075220;28;20435;-79
2022/01/27 09:03:02;;;;;;;29.73;13.55;;;;;;;2.56;100.00;100960.47;5075205;28;20443;-82
2022/01/27 09:05:31;;;;;;;25.13;12.65;;;;;;;2.55;100.00;100964.88;5075044;28;20829;-78
2022/01/27 09:07:59;;;;;;;31.77;14.15;;;;;;;2.70;100.00;100971.66;5075154;28;20378;-80
2022/01/27 09:10:32;;;;;;;29.08;13.70;;;;;;;2.86;100.00;100978.41;5074627;28;20041;-78
2022/01/27 09:13:01;;;;;;;29.58;13.48;;;;;;;2.73;100.00;100982.16;5074967;28;20045;-79
2022/01/27 09:15:30;;;;;;;27.85;13.77;;;;;;;2.75;100.00;100971.56;5073765;28;20507;-77
2022/01/27 09:18:00;;;;;;;30.23;12.82;;;;;;;2.68;100.00;100983.09;5074825;28;20036;-81
2022/01/27 09:20:29;;;;;;;17.40;9.15;;;;;;;2.72;100.00;100983.03;5074879;28;20426;-77
2022/01/27 09:22:58;;;;;;;28.25;13.57;;;;;;;2.83;100.00;100972.31;5074128;28;20114;-76
2022/01/27 09:25:31;;;;;;;26.65;11.82;;;;;;;2.75;100.00;100969.81;5074897;28;20048;-78
2022/01/27 09:28:02;;;;;;;28.00;13.55;;;;;;;2.93;100.00;100980.94;5074899;28;20098;-76
2022/01/27 09:30:30;;;;;;;28.17;11.85;;;;;;;3.06;100.00;100979.81;5074114;28;20059;-76
2022/01/27 09:32:59;;;;;;;26.00;12.85;;;;;;;3.11;100.00;100994.66;5074304;28;20052;-76
2022/01/27 09:35:28;;;;;;;28.88;12.80;;;;;;;3.16;100.00;100987.53;5074777;28;20059;-76
2022/01/27 09:37:57;;;;;;;29.30;13.07;;;;;;;2.98;100.00;100994.88;5073690;28;20056;-79
2022/01/27 09:40:25;;;;;;;29.08;11.80;;;;;;;2.88;100.00;100976.59;5074131;28;20052;-77
2022/01/27 09:42:55;;;;;;;27.67;12.68;;;;;;;3.01;100.00;100973.78;5073879;28;20037;-79
2022/01/27 09:45:27;;;;;;;23.83;9.05;;;;;;;2.89;100.00;100972.19;5074302;28;20048;-79
2022/01/27 09:47:59;;;;;;;27.88;10.57;;;;;;;3.01;100.00;100963.22;5074144;28;20045;-77
2022/01/27 09:50:45;;;;;;;19.60;9.57;;;;;;;2.87;100.00;100980.13;5074310;28;20064;-78
2022/01/27 09:53:14;;;;;;;29.35;11.45;;;;;;;3.08;100.00;100964.84;5074532;28;20539;-78
2022/01/27 09:55:43;;;;;;;20.08;8.02;;;;;;;3.00;100.00;100959.72;5074292;28;20040;-76
2022/01/27 09:58:11;;;;;;;21.83;9.80;;;;;;;3.04;100.00;100977.22;5074467;28;20049;-77
2022/01/27 10:00:41;;;;;;;25.50;11.55;;;;;;;2.97;100.00;100985.25;5073596;28;20052;-78
2022/01/27 10:03:12;;;;;;;26.23;11.65;;;;;;;3.12;100.00;100975.31;5073765;28;20040;-79
2022/01/27 10:05:42;;;;;;;27.27;12.70;;;;;;;3.23;100.00;100977.75;5073522;28;20040;-75
2022/01/27 10:08:15;;;;;;;20.80;9.48;;;;;;;3.35;100.00;100972.25;5073770;28;20115;-75
2022/01/27 10:10:46;;;;;;;23.92;12.52;;;;;;;3.21;100.00;100976.91;5073140;28;20128;-74
2022/01/27 10:13:30;;;;;;;21.30;9.20;;;;;;;3.26;100.00;100964.50;5073683;28;20048;-76
2022/01/27 10:16:01;;;;;;;23.00;11.75;;;;;;;3.37;100.00;100964.28;5074133;28;20472;-74
2022/01/27 10:18:35;;;;;;;25.17;12.18;;;;;;;3.27;100.00;100952.19;5074236;28;20051;-79
2022/01/27 10:21:05;;;;;;;24.10;11.85;;;;;;;3.29;100.00;100935.47;5073736;28;20045;-78
2022/01/27 10:23:37;;;;;;;23.60;11.63;;;;;;;3.16;100.00;100933.94;5072833;28;20066;-79
2022/01/27 10:26:14;;;;;;;24.02;12.25;;;;;;;3.10;100.00;100931.44;5073038;28;20045;-80
2022/01/27 10:28:45;;;;;;;24.98;12.15;;;;;;;2.96;100.00;100920.25;5073617;28;20127;-76
2022/01/27 10:31:19;;;;;;;23.02;11.55;;;;;;;2.94;100.00;100906.25;5073587;28;20131;-78
2022/01/27 10:33:50;;;;;;;25.25;11.73;;;;;;;3.01;100.00;100902.63;5072483;28;20056;-80
2022/01/27 10:36:22;;;;;;;23.30;10.50;;;;;;;3.13;100.00;100903.25;5073691;28;20504;-80
2022/01/27 10:38:52;;;;;;;23.00;10.73;;;;;;;3.22;100.00;100907.47;5073713;28;20048;-78
2022/01/27 10:41:21;;;;;;;24.40;10.20;;;;;;;3.10;100.00;100891.91;5072822;28;20040;-72
2022/01/27 10:43:50;;;;;;;23.52;11.25;;;;;;;3.18;100.00;100905.78;5073062;28;20097;-77
2022/01/27 10:46:25;;;;;;;21.25;9.55;;;;;;;3.36;100.00;100910.69;5073387;28;20457;-76
2022/01/27 10:49:00;;;;;;;23.40;10.98;;;;;;;3.56;100.00;100899.72;5072606;28;20040;-76
2022/01/27 10:51:32;;;;;;;21.55;10.93;;;;;;;3.62;100.00;100896.97;5073486;28;20432;-76
2022/01/27 10:54:04;;;;;;;30.60;12.67;;;;;;;3.60;100.00;100888.22;5073147;28;20450;-75
2022/01/27 10:56:35;;;;;;;20.85;10.68;;;;;;;3.64;100.00;100874.06;5073323;28;20053;-78
2022/01/27 10:59:06;;;;;;;26.02;12.10;;;;;;;3.56;100.00;100870.69;5071134;28;20053;-79
2022/01/27 11:01:40;;;;;;;21.63;10.60;;;;;;;3.54;100.00;100866.38;5073037;28;20442;-76
2022/01/27 11:04:10;;;;;;;23.30;11.48;;;;;;;3.47;100.00;100867.41;5073187;28;20492;-77
2022/01/27 11:06:53;;;;;;;22.67;11.45;;;;;;;3.50;100.00;100870.84;5072666;28;20051;-73
2022/01/27 11:09:22;;;;;;;18.55;9.00;;;;;;;3.47;100.00;100864.75;5072589;28;20045;-72
2022/01/27 11:11:52;;;;;;;21.42;11.45;;;;;;;3.49;100.00;100863.84;5052279;28;20508;-72
2022/01/27 11:14:23;;;;;;;23.38;11.15;;;;;;;3.51;100.00;100861.16;5052613;28;20106;-72
2022/01/27 11:16:56;;;;;;;27.95;12.25;;;;;;;3.55;100.00;100870.75;5052729;28;20436;-77
2022/01/27 11:19:42;;;;;;;25.23;12.40;;;;;;;3.65;100.00;100856.44;5052265;28;20132;-79
2022/01/27 11:22:28;;;;;;;22.95;11.02;;;;;;;3.71;100.00;100861.59;5052930;28;20120;-80
2022/01/27 11:25:49;;;;;;;23.60;11.68;;;;;;;3.68;100.00;100846.72;5052814;28;20036;-80
2022/01/27 11:28:01;;;;;;;26.95;11.93;;;;;;;3.67;100.00;100846.75;5061241;28;20043;-78
2022/01/27 11:30:37;;;;;;;26.23;12.48;;;;;;;3.69;100.00;100837.03;5072555;28;20381;-78
2022/01/27 11:33:11;;;;;;;24.52;10.82;;;;;;;3.81;100.00;100836.75;5072567;28;20504;-76
2022/01/27 11:36:06;;;;;;;27.10;12.63;;;;;;;3.82;100.00;100827.91;5072377;28;20062;-74
2022/01/27 11:38:35;;;;;;;25.65;12.95;;;;;;;3.87;100.00;100818.13;5072512;28;20098;-72
2022/01/27 11:41:03;;;;;;;23.30;11.80;;;;;;;3.96;100.00;100825.84;5075399;28;20040;-73
2022/01/27 11:43:33;;;;;;;28.88;14.02;;;;;;;3.85;100.00;100804.09;5072161;28;20045;-79
2022/01/27 11:46:20;;;;;;;23.80;12.23;;;;;;;3.96;100.00;100810.00;5071883;28;20051;-81
2022/01/27 11:48:50;;;;;;;26.25;12.82;;;;;;;4.01;100.00;100816.00;5071899;28;20040;-85
2022/01/27 11:51:19;;;;;;;28.00;13.10;;;;;;;3.92;100.00;100800.41;5072684;28;20040;-86